Time;durP1;ratioP1;P1;durP2;ratioP2;P2;SDS_P1;SDS_P2;PMS_P1;PMS_P2;Temp;Humidity;BMP_temperature;BMP_pressure;BME280_temperature;BME280_humidity;BME280_pressure;Samples;Min_cycle;Max_cycle;Signal;HPM_P1;HPM_P2
2022/10/02 00:02:14;;;;;;;;;6.67;6.67;;;;;17.43;75.91;101480.81;5101681;27;46259;-75
2022/10/02 00:04:46;;;;;;;;;5.00;5.00;;;;;17.37;75.49;101468.16;5083275;27;45366;-75
2022/10/02 00:07:13;;;;;;;;;10.67;8.00;;;;;17.37;76.13;101460.94;5101710;27;45785;-76
2022/10/02 00:09:51;;;;;;;;;7.33;7.33;;;;;17.43;75.84;101464.69;5101799;27;45356;-76
2022/10/02 00:12:20;;;;;;;;;6.67;6.00;;;;;17.40;76.23;101473.13;5101479;27;45348;-76
2022/10/02 00:14:49;;;;;;;;;11.00;8.00;;;;;17.34;75.95;101465.88;5101452;27;45277;-75
2022/10/02 00:17:33;;;;;;;;;8.00;6.67;;;;;17.37;76.31;101473.53;5101559;27;45416;-75
2022/10/02 00:19:59;;;;;;;;;9.67;8.33;;;;;17.28;76.11;101456.78;5088729;27;45401;-75
2022/10/02 00:22:46;;;;;;;;;11.00;9.33;;;;;17.30;76.70;101457.38;5083026;27;47795;-76
2022/10/02 00:25:30;;;;;;;;;6.00;6.00;;;;;17.34;76.86;101477.47;5089900;27;45345;-75
2022/10/02 00:28:18;;;;;;;;;11.67;8.00;;;;;17.31;76.50;101477.88;5101034;27;45330;-74
2022/10/02 00:30:51;;;;;;;;;8.67;8.00;;;;;17.26;76.60;101475.78;5071018;27;46207;-75
2022/10/02 00:33:31;;;;;;;;;8.00;8.00;;;;;17.29;76.80;101486.13;5101331;27;45487;-75
2022/10/02 00:36:17;;;;;;;;;11.00;8.00;;;;;17.25;76.86;101495.63;5101439;27;45256;-75
2022/10/02 00:38:57;;;;;;;;;9.00;7.00;;;;;17.24;77.41;101493.13;5101198;27;45365;-76
2022/10/02 00:42:01;;;;;;;;;7.67;7.67;;;;;17.26;77.27;101501.81;5101187;27;45357;-75
2022/10/02 00:44:42;;;;;;;;;8.00;8.00;;;;;17.28;77.58;101495.22;5089741;27;46116;-75
2022/10/02 00:47:26;;;;;;;;;9.67;8.00;;;;;17.28;77.49;101508.66;5082876;27;45296;-76
2022/10/02 00:50:03;;;;;;;;;11.00;9.33;;;;;17.28;78.17;101497.91;5101308;27;45464;-75
2022/10/02 00:53:04;;;;;;;;;9.33;8.67;;;;;17.33;78.45;101507.22;5100842;27;45379;-75
2022/10/02 00:55:38;;;;;;;;;10.67;10.67;;;;;17.34;78.42;101506.19;5093290;27;45177;-76
2022/10/02 00:58:29;;;;;;;;;6.67;6.33;;;;;17.34;78.68;101501.66;5082318;27;46179;-75
2022/10/02 01:01:06;;;;;;;;;10.67;10.67;;;;;17.35;78.63;101510.50;5082589;27;45433;-75
2022/10/02 01:03:43;;;;;;;;;8.67;8.67;;;;;17.32;78.78;101500.16;5100761;27;45543;-75
2022/10/02 01:06:09;;;;;;;;;8.00;7.33;;;;;17.36;79.23;101499.56;5082389;27;48574;-75
2022/10/02 01:08:36;;;;;;;;;8.67;6.67;;;;;17.33;79.26;101491.09;5100678;27;45276;-75
2022/10/02 01:11:02;;;;;;;;;10.00;10.00;;;;;17.37;78.80;101500.41;5100767;27;45226;-76
2022/10/02 01:13:29;;;;;;;;;10.67;9.00;;;;;17.35;79.18;101491.72;5100318;27;45484;-75
2022/10/02 01:15:59;;;;;;;;;8.00;7.33;;;;;17.32;79.50;101495.63;5082030;27;48060;-75
2022/10/02 01:18:25;;;;;;;;;11.67;9.67;;;;;17.34;79.52;101498.97;5082200;27;45839;-75
2022/10/02 01:20:57;;;;;;;;;8.67;8.67;;;;;17.30;79.57;101492.31;5081895;27;45389;-76
2022/10/02 01:23:48;;;;;;;;;10.00;7.00;;;;;17.34;79.96;101500.81;5081843;27;47016;-76
2022/10/02 01:26:14;;;;;;;;;6.67;6.67;;;;;17.26;79.80;101486.53;5100289;27;45275;-75
2022/10/02 01:28:40;;;;;;;;;7.00;7.00;;;;;17.32;80.07;101490.25;5099731;27;45437;-75
2022/10/02 01:31:09;;;;;;;;;7.67;7.00;;;;;17.18;80.00;101473.25;5082324;27;45320;-75
2022/10/02 01:33:37;;;;;;;;;9.00;8.00;;;;;17.31;80.69;101495.84;5081978;27;46349;-75
2022/10/02 01:36:03;;;;;;;;;5.67;5.67;;;;;17.19;81.32;101485.69;5100458;27;46661;-76
2022/10/02 01:38:29;;;;;;;;;5.67;5.67;;;;;17.30;81.24;101503.06;5100226;27;45570;-75
2022/10/02 01:40:54;;;;;;;;;6.00;6.00;;;;;17.23;81.93;101484.25;5100480;27;45389;-76
2022/10/02 01:43:28;;;;;;;;;9.33;6.00;;;;;17.32;82.54;101502.84;5099992;27;47281;-76
2022/10/02 01:46:12;;;;;;;;;6.33;5.67;;;;;17.27;83.00;101490.88;5081806;27;47321;-76
2022/10/02 01:48:44;;;;;;;;;2.33;2.33;;;;;17.33;83.13;101501.84;5099736;27;45321;-77
2022/10/02 01:51:29;;;;;;;;;7.33;7.00;;;;;17.33;83.86;101501.84;5100361;27;45305;-77
2022/10/02 01:54:04;;;;;;;;;7.00;6.00;;;;;17.33;84.25;101510.72;5089170;27;46005;-74
2022/10/02 01:57:02;;;;;;;;;6.00;4.67;;;;;17.34;84.59;101509.72;5107704;27;45595;-75
2022/10/02 01:59:36;;;;;;;;;7.67;6.67;;;;;17.36;84.73;101504.13;5101107;27;45252;-76
2022/10/02 02:02:31;;;;;;;;;6.00;6.00;;;;;17.35;85.55;101497.09;5101541;27;45286;-75
2022/10/02 02:04:59;;;;;;;;;6.33;6.33;;;;;17.35;85.48;101494.41;5089840;27;45788;-75
2022/10/02 02:07:25;;;;;;;;;6.33;6.00;;;;;17.35;85.75;101483.66;5106528;27;46432;-75
2022/10/02 02:10:23;;;;;;;;;7.00;7.00;;;;;17.34;86.18;101492.75;5100731;27;45329;-75
2022/10/02 02:13:20;;;;;;;;;7.00;7.00;;;;;17.34;86.80;101488.22;5081130;27;45402;-75
2022/10/02 02:16:13;;;;;;;;;8.67;7.33;;;;;17.33;87.15;101485.72;5091773;27;45226;-75
2022/10/02 02:18:53;;;;;;;;;6.00;5.00;;;;;17.33;87.68;101481.16;5099167;27;46271;-75
2022/10/02 02:21:28;;;;;;;;;7.00;4.33;;;;;17.31;87.97;101479.72;5099830;27;45408;-75
2022/10/02 02:23:56;;;;;;;;;6.00;6.00;;;;;17.27;88.29;101474.75;5081628;27;45287;-75
2022/10/02 02:26:24;;;;;;;;;7.00;6.00;;;;;17.34;88.54;101479.31;5099550;27;45266;-75
2022/10/02 02:28:54;;;;;;;;;3.67;3.67;;;;;17.35;88.30;101476.44;5099306;27;45481;-74
2022/10/02 02:31:23;;;;;;;;;5.00;5.00;;;;;17.35;88.93;101473.75;5099767;27;45384;-74
2022/10/02 02:33:58;;;;;;;;;6.33;4.33;;;;;17.36;89.12;101472.72;5099709;27;45602;-75
2022/10/02 02:36:29;;;;;;;;;4.00;4.00;;;;;17.34;89.04;101463.19;5081280;27;45987;-74
2022/10/02 02:39:01;;;;;;;;;4.33;4.33;;;;;17.21;89.56;101472.84;5099412;27;45555;-74
2022/10/02 02:41:53;;;;;;;;;5.00;4.67;;;;;17.19;89.97;101455.28;5081354;27;46046;-74
2022/10/02 02:44:31;;;;;;;;;3.33;3.33;;;;;17.24;89.73;101458.22;5086666;27;45285;-75
2022/10/02 02:47:06;;;;;;;;;4.00;4.00;;;;;17.15;90.31;101453.00;5080875;27;45962;-74
2022/10/02 02:50:04;;;;;;;;;5.33;5.33;;;;;17.15;90.51;101457.56;5099559;27;46369;-74
2022/10/02 02:53:08;;;;;;;;;6.00;5.33;;;;;17.16;90.79;101449.28;5081213;27;45410;-74
2022/10/02 02:55:40;;;;;;;;;8.33;7.33;;;;;17.37;90.96;101450.19;5080654;27;45263;-74
2022/10/02 02:58:11;;;;;;;;;3.67;3.67;;;;;17.41;90.95;101450.59;5099335;27;45333;-75
2022/10/02 03:00:37;;;;;;;;;4.00;4.00;;;;;17.35;91.07;101440.66;5083934;27;47984;-75
2022/10/02 03:03:02;;;;;;;;;5.00;4.67;;;;;17.46;91.07;101441.94;5102960;27;45373;-75
2022/10/02 03:05:28;;;;;;;;;5.33;5.00;;;;;17.45;91.29;101433.03;5084685;27;45439;-75
2022/10/02 03:08:02;;;;;;;;;4.67;4.00;;;;;17.51;91.30;101440.28;5102759;27;45373;-74
2022/10/02 03:10:38;;;;;;;;;6.00;6.00;;;;;17.57;91.67;101444.03;5102869;27;45372;-74
2022/10/02 03:13:21;;;;;;;;;5.00;5.00;;;;;17.59;91.39;101439.28;5070671;27;45327;-74
2022/10/02 03:15:52;;;;;;;;;4.33;4.00;;;;;17.60;91.52;101432.88;5084457;27;45275;-75
2022/10/02 03:18:30;;;;;;;;;5.33;5.00;;;;;17.65;91.43;101441.16;5084206;27;46083;-74
2022/10/02 03:21:28;;;;;;;;;4.00;4.00;;;;;17.64;91.67;101439.50;5083976;27;48409;-75
2022/10/02 03:24:19;;;;;;;;;5.33;5.00;;;;;17.71;91.62;101435.97;5102707;27;45357;-75
2022/10/02 03:27:11;;;;;;;;;4.67;4.00;;;;;17.75;91.66;101431.88;5070661;27;45448;-75
2022/10/02 03:29:44;;;;;;;;;7.67;6.67;;;;;17.74;91.67;101425.66;5090948;27;45523;-76
2022/10/02 03:32:13;;;;;;;;;5.00;5.00;;;;;17.70;92.17;101423.56;5102322;27;47568;-75
2022/10/02 03:34:39;;;;;;;;;6.33;5.33;;;;;17.69;92.02;101428.13;5102482;27;45460;-75
2022/10/02 03:37:05;;;;;;;;;6.00;6.00;;;;;17.74;92.51;101422.97;5083998;27;45274;-74
2022/10/02 03:39:31;;;;;;;;;6.00;6.00;;;;;17.76;92.07;101420.91;5083958;27;47438;-75
2022/10/02 03:41:56;;;;;;;;;6.00;6.00;;;;;17.73;92.29;101407.88;5102093;27;46223;-75
2022/10/02 03:44:22;;;;;;;;;6.00;6.00;;;;;17.74;91.97;101412.22;5083544;27;45810;-75
2022/10/02 03:46:47;;;;;;;;;7.33;6.33;;;;;17.75;92.41;101410.38;5102139;27;45425;-75
2022/10/02 03:49:12;;;;;;;;;5.67;5.67;;;;;17.70;91.87;101405.59;5083898;27;45940;-74
2022/10/02 03:51:38;;;;;;;;;5.67;5.67;;;;;17.76;92.39;101410.16;5102015;27;46021;-75
2022/10/02 03:54:11;;;;;;;;;8.00;6.33;;;;;17.79;92.23;101404.38;5102212;27;45492;-75
2022/10/02 03:56:53;;;;;;;;;6.00;6.00;;;;;17.82;92.33;101402.28;5102379;27;45321;-75
2022/10/02 04:00:00;;;;;;;;;7.33;6.67;;;;;17.84;92.16;101395.66;5083270;27;46105;-74
2022/10/02 04:02:38;;;;;;;;;7.00;7.00;;;;;17.84;92.18;101405.59;5073149;27;45485;-74
2022/10/02 04:05:32;;;;;;;;;6.33;6.00;;;;;17.82;91.86;101411.19;5083608;27;45334;-74
2022/10/02 04:08:03;;;;;;;;;4.67;4.67;;;;;17.78;92.01;101396.50;5094414;27;45301;-74
2022/10/02 04:10:43;;;;;;;;;3.67;3.67;;;;;17.78;92.38;101408.06;5101610;27;45565;-75
2022/10/02 04:13:15;;;;;;;;;3.00;3.00;;;;;17.75;92.83;101407.69;5070585;27;46551;-75
2022/10/02 04:15:56;;;;;;;;;2.00;2.00;;;;;17.77;93.10;101411.81;5101738;27;45388;-75
2022/10/02 04:18:29;;;;;;;;;3.67;3.00;;;;;17.79;93.58;101411.59;5101953;27;45445;-75
2022/10/02 04:21:02;;;;;;;;;3.00;2.00;;;;;17.81;93.53;101412.22;5101548;27;45721;-75
2022/10/02 04:23:34;;;;;;;;;3.67;2.00;;;;;17.78;94.27;101405.38;5101669;27;45425;-74
2022/10/02 04:26:09;;;;;;;;;2.00;1.00;;;;;17.78;94.29;101409.94;5101573;27;45562;-74
2022/10/02 04:28:41;;;;;;;;;1.00;1.00;;;;;17.81;94.29;101406.00;5101201;27;45238;-75
2022/10/02 04:31:11;;;;;;;;;3.00;1.33;;;;;17.79;94.69;101404.38;5083204;27;46344;-75
2022/10/02 04:33:37;;;;;;;;;1.00;1.00;;;;;17.80;94.37;101410.56;5083009;27;47108;-75
2022/10/02 04:36:23;;;;;;;;;1.67;1.67;;;;;17.85;95.42;101412.63;5083250;27;45774;-76
2022/10/02 04:38:58;;;;;;;;;1.00;1.00;;;;;17.85;95.51;101404.56;5082966;27;45370;-74
2022/10/02 04:41:55;;;;;;;;;2.00;2.00;;;;;17.88;95.48;101412.22;5101433;27;45301;-75
2022/10/02 04:44:47;;;;;;;;;1.00;1.00;;;;;17.88;95.37;101410.38;5070422;27;48114;-74
2022/10/02 04:47:42;;;;;;;;;1.00;1.00;;;;;17.87;95.30;101416.75;5101181;27;45505;-74
2022/10/02 04:50:38;;;;;;;;;3.33;1.00;;;;;17.89;95.67;101420.06;5101419;27;45392;-75
2022/10/02 04:53:15;;;;;;;;;1.00;1.00;;;;;17.89;95.97;101420.06;5091128;27;45294;-75
2022/10/02 04:55:43;;;;;;;;;0.00;0.00;;;;;17.91;95.62;101425.25;5101078;27;45402;-76
2022/10/02 04:58:21;;;;;;;;;2.00;2.00;;;;;17.90;95.60;101428.97;5101079;27;45368;-75
2022/10/02 05:00:49;;;;;;;;;2.00;2.00;;;;;17.88;96.47;101421.13;5082805;27;45473;-75
2022/10/02 05:03:14;;;;;;;;;0.00;0.00;;;;;17.88;97.14;101425.66;5101109;27;45365;-75
2022/10/02 05:05:42;;;;;;;;;1.00;1.00;;;;;17.89;97.22;101430.00;5100880;27;45654;-75
2022/10/02 05:08:26;;;;;;;;;0.00;0.00;;;;;17.89;96.93;101421.94;5100925;27;45290;-76
2022/10/02 05:11:22;;;;;;;;;1.00;1.00;;;;;17.91;97.23;101427.94;5082776;27;45318;-74
2022/10/02 05:14:03;;;;;;;;;1.33;1.33;;;;;17.91;97.10;101430.63;5100687;27;45744;-75
2022/10/02 05:16:50;;;;;;;;;0.00;0.00;;;;;17.95;96.98;101428.34;5065777;28;47317;-75
2022/10/02 05:19:30;;;;;;;;;1.00;1.00;;;;;17.95;96.94;101428.34;5096322;27;45456;-75
2022/10/02 05:22:13;;;;;;;;;0.00;0.00;;;;;17.90;97.15;101402.09;5081445;27;45413;-75
2022/10/02 05:24:39;;;;;;;;;0.00;0.00;;;;;17.94;96.62;101422.16;5100466;27;45276;-75
2022/10/02 05:27:13;;;;;;;;;0.00;0.00;;;;;17.92;96.61;101425.03;5082029;27;48375;-75
2022/10/02 05:30:01;;;;;;;;;0.00;0.00;;;;;17.88;96.34;101418.44;5081687;27;45972;-75
2022/10/02 05:32:36;;;;;;;;;0.00;0.00;;;;;17.88;96.76;101426.50;5067384;28;45311;-75
2022/10/02 05:35:23;;;;;;;;;0.00;0.00;;;;;17.87;97.05;101424.00;5077503;27;45607;-74
2022/10/02 05:37:59;;;;;;;;;1.00;0.00;;;;;17.85;96.76;101421.53;5082102;27;47447;-74
2022/10/02 05:40:35;;;;;;;;;0.00;0.00;;;;;17.86;96.94;101419.66;5100425;27;45222;-74
2022/10/02 05:43:09;;;;;;;;;0.33;0.33;;;;;17.76;96.14;101402.09;5081903;27;45250;-74
2022/10/02 05:45:54;;;;;;;;;0.00;0.00;;;;;17.79;96.23;101422.34;5100188;27;45325;-74
2022/10/02 05:48:27;;;;;;;;;0.00;0.00;;;;;17.74;96.84;101422.13;5100249;27;45261;-75
2022/10/02 05:51:30;;;;;;;;;0.33;0.33;;;;;17.73;96.51;101421.31;5081889;27;46067;-74
2022/10/02 05:54:02;;;;;;;;;0.00;0.00;;;;;17.70;96.67;101428.97;5077083;27;45409;-74
2022/10/02 05:56:37;;;;;;;;;0.00;0.00;;;;;17.67;96.61;101424.81;5100183;27;45372;-77
2022/10/02 05:59:12;;;;;;;;;1.00;1.00;;;;;17.65;96.42;101424.19;5080989;27;47789;-76
2022/10/02 06:01:46;;;;;;;;;0.00;0.00;;;;;17.65;96.34;101434.94;5100411;27;45386;-74
2022/10/02 06:04:32;;;;;;;;;1.00;0.00;;;;;17.62;96.06;101440.72;5081601;27;45446;-75
2022/10/02 06:07:13;;;;;;;;;0.00;0.00;;;;;17.60;96.10;101435.56;5072309;27;47133;-75
2022/10/02 06:09:48;;;;;;;;;1.00;1.00;;;;;17.52;96.41;101430.38;5098154;27;45443;-74
2022/10/02 06:12:25;;;;;;;;;2.67;2.00;;;;;17.53;95.90;101438.25;5081431;27;45439;-74
2022/10/02 06:15:09;;;;;;;;;0.00;0.00;;;;;17.56;96.11;101441.53;5099897;27;45240;-74
2022/10/02 06:17:52;;;;;;;;;0.00;0.00;;;;;17.51;96.05;101434.91;5099718;27;45268;-74
2022/10/02 06:20:33;;;;;;;;;0.00;0.00;;;;;17.52;95.63;101441.97;5099652;27;46580;-74
2022/10/02 06:23:08;;;;;;;;;0.00;0.00;;;;;17.51;95.98;101447.53;5067525;27;45477;-75
2022/10/02 06:25:44;;;;;;;;;0.00;0.00;;;;;17.40;96.46;101428.31;5099929;27;45243;-76
2022/10/02 06:28:22;;;;;;;;;0.00;0.00;;;;;17.49;96.79;101446.91;5094580;27;45345;-76
2022/10/02 06:31:03;;;;;;;;;0.00;0.00;;;;;17.52;97.49;101452.72;5099449;27;45409;-76
2022/10/02 06:33:31;;;;;;;;;0.00;0.00;;;;;17.59;97.82;101459.94;5101560;27;45290;-76
2022/10/02 06:36:20;;;;;;;;;0.00;0.00;;;;;17.67;97.87;101463.28;5085834;27;45324;-77
2022/10/02 06:38:59;;;;;;;;;0.00;0.00;;;;;17.74;98.35;101462.44;5102917;27;45386;-77
2022/10/02 06:41:53;;;;;;;;;0.00;0.00;;;;;17.77;98.16;101456.66;5085395;27;47981;-75
2022/10/02 06:44:47;;;;;;;;;0.00;0.00;;;;;17.78;98.04;101447.59;5103026;27;45215;-76
2022/10/02 06:47:52;;;;;;;;;0.00;0.00;;;;;17.88;97.95;101466.00;5082572;27;45499;-75
2022/10/02 06:50:18;;;;;;;;;0.67;0.67;;;;;17.94;98.26;101470.56;5099396;27;45225;-75
2022/10/02 06:52:55;;;;;;;;;0.67;0.33;;;;;18.02;98.86;101466.84;5075192;27;48356;-74
2022/10/02 06:55:36;;;;;;;;;0.00;0.00;;;;;18.05;98.30;101458.34;5103044;27;45439;-75
2022/10/02 06:58:28;;;;;;;;;1.33;0.33;;;;;18.10;98.44;101453.19;5102935;27;45302;-75
2022/10/02 07:01:32;;;;;;;;;1.00;0.00;;;;;18.10;98.27;101450.50;5102855;27;45547;-74
2022/10/02 07:04:17;;;;;;;;;0.00;0.00;;;;;18.15;98.08;101468.72;5084212;27;47017;-75
2022/10/02 07:06:46;;;;;;;;;0.00;0.00;;;;;18.21;98.84;101465.22;5084342;27;45388;-73
2022/10/02 07:09:32;;;;;;;;;0.00;0.00;;;;;18.22;98.87;101456.09;5102946;27;45222;-73
2022/10/02 07:12:25;;;;;;;;;0.00;0.00;;;;;18.10;98.50;101433.50;5102699;27;45243;-73
2022/10/02 07:15:09;;;;;;;;;0.00;0.00;;;;;18.28;98.55;101447.19;5101986;27;46379;-75
2022/10/02 07:17:56;;;;;;;;;0.00;0.00;;;;;18.26;98.13;101443.06;5102603;27;45348;-74
2022/10/02 07:20:28;;;;;;;;;0.00;0.00;;;;;18.35;98.18;101454.44;5084220;27;45371;-74
2022/10/02 07:22:54;;;;;;;;;0.00;0.00;;;;;18.39;98.43;101452.97;5102423;27;45381;-73
2022/10/02 07:25:53;;;;;;;;;0.00;0.00;;;;;18.42;98.39;101450.69;5102155;27;46099;-74
2022/10/02 07:28:38;;;;;;;;;3.33;2.33;;;;;18.48;98.67;101446.34;5077138;27;45188;-75
2022/10/02 07:31:22;;;;;;;;;0.00;0.00;;;;;18.51;98.34;101443.22;5102865;27;45292;-75
2022/10/02 07:33:47;;;;;;;;;0.00;0.00;;;;;18.55;97.70;101449.00;5101215;27;45390;-74
2022/10/02 07:36:36;;;;;;;;;1.00;0.00;;;;;18.58;97.98;101437.81;5102427;27;45516;-74
2022/10/02 07:39:40;;;;;;;;;0.00;0.00;;;;;18.64;97.83;101452.28;5076124;27;45942;-74
2022/10/02 07:42:34;;;;;;;;;0.00;0.00;;;;;18.58;97.69;101447.78;5084243;27;45448;-75
2022/10/02 07:45:18;;;;;;;;;0.00;0.00;;;;;18.68;97.72;101462.44;5101515;27;45525;-74
2022/10/02 07:48:01;;;;;;;;;0.00;0.00;;;;;18.71;97.48;101465.75;5089900;27;46581;-74
2022/10/02 07:50:57;;;;;;;;;0.00;0.00;;;;;18.74;97.29;101462.63;5102286;27;45406;-75
2022/10/02 07:53:50;;;;;;;;;0.00;0.00;;;;;18.75;97.14;101465.13;5092611;27;45471;-75
2022/10/02 07:56:21;;;;;;;;;0.00;0.00;;;;;18.74;96.96;101473.41;5088335;27;45671;-74
2022/10/02 07:58:57;;;;;;;;;0.67;0.67;;;;;18.78;96.72;101470.09;5075101;27;48354;-75
2022/10/02 08:01:32;;;;;;;;;0.00;0.00;;;;;18.78;96.40;101467.38;5094014;27;45334;-74
2022/10/02 08:04:05;;;;;;;;;0.00;0.00;;;;;18.82;96.34;101473.16;5098935;27;45259;-74
2022/10/02 08:06:32;;;;;;;;;0.00;0.00;;;;;18.86;96.35;101476.28;5086270;27;45449;-75
2022/10/02 08:09:03;;;;;;;;;0.00;0.00;;;;;18.88;95.95;101476.88;5076327;27;47280;-74
2022/10/02 08:11:38;;;;;;;;;0.00;0.00;;;;;18.85;95.84;101480.81;5088613;27;45424;-74
2022/10/02 08:14:37;;;;;;;;;0.67;0.67;;;;;18.89;95.45;101487.44;5096026;27;45331;-75
2022/10/02 08:17:10;;;;;;;;;1.00;1.00;;;;;18.87;95.45;101486.00;5096418;27;45512;-77
2022/10/02 08:19:44;;;;;;;;;1.00;1.00;;;;;18.91;95.21;101485.34;5103655;27;45628;-78
2022/10/02 08:22:15;;;;;;;;;2.50;2.50;;;;;18.96;95.04;101487.41;5107093;27;45169;-77
2022/10/02 08:24:52;;;;;;;;;1.00;1.00;;;;;19.04;95.04;101494.44;5086010;27;45300;-74
2022/10/02 08:27:23;;;;;;;;;0.67;0.67;;;;;19.08;94.98;101490.31;5108085;27;45632;-77
2022/10/02 08:29:57;;;;;;;;;0.33;0.33;;;;;19.18;94.50;101487.16;5103810;27;45330;-74
2022/10/02 08:32:29;;;;;;;;;4.00;2.00;;;;;19.30;94.07;101496.22;5087493;27;45361;-78
2022/10/02 08:34:54;;;;;;;;;2.00;2.00;;;;;19.35;93.59;101495.59;5085607;27;45316;-75
2022/10/02 08:37:42;;;;;;;;;1.33;1.33;;;;;19.40;93.33;101500.34;5101590;27;45342;-74
2022/10/02 08:40:32;;;;;;;;;2.00;2.00;;;;;19.43;93.05;101492.63;5101289;27;46533;-74
2022/10/02 08:43:03;;;;;;;;;3.00;3.00;;;;;19.48;93.07;101502.75;5101327;27;45365;-75
2022/10/02 08:45:33;;;;;;;;;2.00;2.00;;;;;19.51;92.42;101499.63;5101480;27;45315;-74
2022/10/02 08:48:16;;;;;;;;;5.00;2.67;;;;;19.51;91.80;101502.34;5101332;27;45349;-73
2022/10/02 08:51:22;;;;;;;;;4.00;2.33;;;;;19.47;91.17;101492.19;5101087;27;45360;-74
2022/10/02 08:54:26;;;;;;;;;3.00;3.00;;;;;19.54;91.44;101499.22;5101127;27;45496;-75
2022/10/02 08:57:12;;;;;;;;;2.33;2.33;;;;;19.51;90.72;101493.41;5100198;27;45278;-74
2022/10/02 08:59:51;;;;;;;;;3.00;3.00;;;;;19.61;90.74;101509.13;5088839;27;45279;-75
2022/10/02 09:02:38;;;;;;;;;2.00;1.00;;;;;19.64;90.09;101498.72;5101081;27;46507;-74
2022/10/02 09:05:15;;;;;;;;;2.67;2.67;;;;;19.66;89.86;101493.94;5101031;27;45356;-75
2022/10/02 09:08:25;;;;;;;;;3.00;3.00;;;;;19.70;89.61;101499.75;5088543;27;45281;-74
2022/10/02 09:11:05;;;;;;;;;3.67;3.00;;;;;19.71;89.10;101493.31;5100817;27;45335;-74
2022/10/02 09:14:09;;;;;;;;;2.00;2.00;;;;;19.78;89.11;101499.47;5100657;27;45280;-74
2022/10/02 09:16:46;;;;;;;;;5.00;5.00;;;;;19.81;89.20;101492.81;5085854;27;45313;-75
2022/10/02 09:19:30;;;;;;;;;4.00;4.00;;;;;19.86;89.31;101502.94;5082424;27;45374;-74
2022/10/02 09:22:20;;;;;;;;;4.00;4.00;;;;;19.90;89.00;101498.75;5100951;27;45401;-75
2022/10/02 09:25:07;;;;;;;;;4.00;3.33;;;;;19.93;88.66;101492.94;5100501;27;45697;-74
2022/10/02 09:28:09;;;;;;;;;2.00;2.00;;;;;19.94;88.33;101490.03;5081778;27;46019;-74
2022/10/02 09:30:52;;;;;;;;;4.00;3.00;;;;;19.97;88.67;101504.13;5087624;27;45350;-73
2022/10/02 09:33:49;;;;;;;;;3.33;2.00;;;;;19.96;88.52;101499.78;5080924;27;47433;-74
2022/10/02 09:36:40;;;;;;;;;3.67;3.00;;;;;19.93;88.17;101496.47;5098076;27;46931;-74
2022/10/02 09:39:51;;;;;;;;;4.67;3.67;;;;;19.91;87.81;101498.53;5099612;27;45377;-74
2022/10/02 09:43:06;;;;;;;;;4.00;3.00;;;;;19.91;88.11;101495.84;5088742;27;45331;-74
2022/10/02 09:46:02;;;;;;;;;1.67;1.67;;;;;19.99;88.35;101502.03;5062909;27;45609;-74
2022/10/02 09:48:46;;;;;;;;;4.00;3.00;;;;;19.92;87.97;101494.81;5100219;27;45337;-74
2022/10/02 09:51:32;;;;;;;;;3.67;3.00;;;;;19.98;87.40;101495.81;5097612;27;45357;-74
2022/10/02 09:54:25;;;;;;;;;2.33;2.00;;;;;20.00;87.39;101504.53;5099190;27;45476;-73
2022/10/02 09:57:30;;;;;;;;;4.00;3.67;;;;;20.01;87.04;101498.09;5098925;27;45461;-74
2022/10/02 10:00:17;;;;;;;;;3.00;3.00;;;;;20.12;86.95;101501.97;5095484;27;46703;-76
2022/10/02 10:03:21;;;;;;;;;3.00;3.00;;;;;20.22;87.25;101501.47;5091567;27;45349;-75
2022/10/02 10:06:27;;;;;;;;;3.33;2.33;;;;;20.33;87.25;101496.38;5099458;27;45262;-75
2022/10/02 10:09:24;;;;;;;;;6.00;5.67;;;;;20.38;86.52;101505.47;5080669;27;45330;-75
2022/10/02 10:12:27;;;;;;;;;3.00;3.00;;;;;20.42;86.40;101498.56;5100003;27;45475;-75
2022/10/02 10:15:11;;;;;;;;;6.67;5.00;;;;;20.50;87.02;101505.56;5061442;27;45573;-76
2022/10/02 10:18:09;;;;;;;;;6.00;6.00;;;;;20.55;86.97;101505.75;5086706;27;45299;-74
2022/10/02 10:20:40;;;;;;;;;2.00;2.00;;;;;20.59;85.99;101502.59;5099561;27;45342;-74
2022/10/02 10:23:35;;;;;;;;;2.67;2.67;;;;;20.62;86.26;101505.66;5099939;27;46379;-75
2022/10/02 10:26:35;;;;;;;;;2.00;2.00;;;;;20.68;86.02;101512.03;5081243;27;45441;-75
2022/10/02 10:29:30;;;;;;;;;4.33;3.00;;;;;20.76;85.03;101508.22;5089815;27;45429;-74
2022/10/02 10:32:34;;;;;;;;;1.33;1.33;;;;;20.87;84.95;101512.06;5099554;27;45274;-74
2022/10/02 10:35:11;;;;;;;;;2.33;2.33;;;;;20.96;84.74;101504.50;5081198;27;47108;-74
2022/10/02 10:40:55;;;;;;;;;2.00;2.00;;;;;21.25;84.14;101510.19;5099930;27;45342;-75
2022/10/02 10:43:43;;;;;;;;;7.33;5.00;;;;;21.34;83.83;101506.09;5099290;27;45440;-74
2022/10/02 10:46:26;;;;;;;;;4.67;4.67;;;;;21.44;83.25;101508.28;5087909;27;45821;-73
2022/10/02 10:48:59;;;;;;;;;2.00;2.00;;;;;;;;5099435;27;45318;-74
2022/10/02 10:51:32;;;;;;;;;2.67;2.67;;;;;21.46;82.30;101506.16;5099766;27;45299;-73
2022/10/02 10:54:04;;;;;;;;;2.33;2.33;;;;;;;;5099257;27;45402;-74
2022/10/02 10:57:03;;;;;;;;;2.00;2.00;;;;;21.49;82.07;101500.28;5099532;27;45380;-74
2022/10/02 11:00:06;;;;;;;;;1.33;1.33;;;;;21.63;82.12;101491.97;5052506;27;45462;-73
2022/10/02 11:02:53;;;;;;;;;1.67;1.67;;;;;21.80;81.50;101497.59;5097712;27;45219;-74
2022/10/02 11:05:46;;;;;;;;;2.33;2.33;;;;;21.89;80.73;101496.22;5068688;27;46335;-74
2022/10/02 11:08:42;;;;;;;;;1.33;1.33;;;;;21.99;81.20;101494.78;5098833;27;45408;-75
2022/10/02 11:11:31;;;;;;;;;1.00;1.00;;;;;22.04;80.12;101501.19;5099194;27;45156;-75
2022/10/02 11:14:15;;;;;;;;;1.67;1.67;;;;;22.10;79.30;101485.06;5099132;27;45340;-73
2022/10/02 11:17:18;;;;;;;;;2.00;2.00;;;;;22.16;78.78;101487.66;5086172;27;45333;-74
2022/10/02 11:20:18;;;;;;;;;3.33;3.33;;;;;22.22;78.14;101495.88;5080770;27;47366;-74
2022/10/02 11:23:04;;;;;;;;;6.33;4.67;;;;;22.19;77.45;101491.78;5102049;27;45358;-75
2022/10/02 11:25:52;;;;;;;;;2.67;1.00;;;;;22.10;77.60;101494.00;5102576;27;45258;-74
2022/10/02 11:28:36;;;;;;;;;0.00;0.00;;;;;22.07;77.30;101481.78;5091087;27;46277;-73
2022/10/02 11:31:16;;;;;;;;;1.00;1.00;;;;;22.01;77.40;101488.13;5083986;27;47435;-73
2022/10/02 11:34:19;;;;;;;;;1.00;1.00;;;;;21.98;77.15;101487.75;5102568;27;45322;-74
2022/10/02 11:36:47;;;;;;;;;1.33;1.33;;;;;21.94;77.09;101484.69;5102572;27;45224;-73
2022/10/02 11:39:44;;;;;;;;;2.00;1.67;;;;;21.94;77.32;101484.69;5084044;27;47358;-73
2022/10/02 11:42:21;;;;;;;;;1.00;1.00;;;;;21.90;76.79;101478.09;5102195;27;46734;-73
2022/10/02 11:45:11;;;;;;;;;1.00;1.00;;;;;21.85;76.33;101475.28;5100825;27;45243;-75
2022/10/02 11:47:56;;;;;;;;;2.67;1.00;;;;;21.83;76.77;101478.19;5071259;27;45394;-74
2022/10/02 11:50:28;;;;;;;;;3.00;3.00;;;;;21.81;76.79;101470.31;5102050;27;45400;-75
2022/10/02 11:53:15;;;;;;;;;2.67;2.00;;;;;21.79;76.87;101466.22;5083842;27;47519;-74
2022/10/02 11:56:14;;;;;;;;;4.00;4.00;;;;;21.85;77.65;101467.97;5102065;27;45400;-74
2022/10/02 11:59:21;;;;;;;;;1.00;1.00;;;;;21.86;76.55;101469.63;5101981;27;45337;-72
2022/10/02 12:02:18;;;;;;;;;1.00;1.00;;;;;21.84;76.44;101473.63;5102099;27;45627;-73
2022/10/02 12:04:54;;;;;;;;;0.00;0.00;;;;;21.88;76.77;101477.50;5102009;27;45687;-74
2022/10/02 12:07:40;;;;;;;;;2.00;2.00;;;;;21.86;77.30;101483.16;5101666;27;45374;-74
2022/10/02 12:10:27;;;;;;;;;0.00;0.00;;;;;21.73;77.78;101484.13;5102212;27;45472;-74
2022/10/02 12:13:23;;;;;;;;;1.00;1.00;;;;;21.70;77.75;101495.44;5084951;27;45410;-74
2022/10/02 12:16:07;;;;;;;;;1.33;1.33;;;;;21.65;78.13;101504.25;5101706;27;45460;-73
2022/10/02 12:18:57;;;;;;;;;1.33;0.33;;;;;21.56;79.16;101501.03;5083602;27;45450;-74
2022/10/02 12:27:21;;;;;;;;;2.33;2.00;;;;;21.14;81.83;101528.00;5092542;27;45365;-75
2022/10/02 12:30:10;;;;;;;;;1.00;1.00;;;;;20.81;94.80;101544.31;5101384;27;45371;-74
2022/10/02 12:33:00;;;;;;;;;1.00;1.00;;;;;20.67;93.86;101546.34;5101765;27;45383;-74
2022/10/02 12:35:31;;;;;;;;;2.67;1.67;;;;;20.65;90.80;101536.81;5083210;27;47405;-74
2022/10/02 12:38:38;;;;;;;;;1.00;1.00;;;;;20.60;89.57;101529.38;5101459;27;45849;-75
2022/10/02 12:41:22;;;;;;;;;2.00;2.00;;;;;20.67;88.99;101522.03;5089889;27;45473;-74
2022/10/02 12:44:15;;;;;;;;;5.33;2.33;;;;;20.68;89.67;101517.44;5101153;27;45404;-74